sensor_id;sensor_type;location;lat;lon;timestamp;temperature;humidity
7232;DHT22;3657;49.630;11.018;2023-04-19T00:00:15;9.20;99.90
7232;DHT22;3657;49.630;11.018;2023-04-19T00:02:42;9.20;99.90
7232;DHT22;3657;49.630;11.018;2023-04-19T00:05:08;9.20;99.90
7232;DHT22;3657;49.630;11.018;2023-04-19T00:07:36;9.20;99.90
7232;DHT22;3657;49.630;11.018;2023-04-19T00:10:03;9.20;99.90
7232;DHT22;3657;49.630;11.018;2023-04-19T00:12:30;9.10;99.90
7232;DHT22;3657;49.630;11.018;2023-04-19T00:14:56;9.10;99.90
7232;DHT22;3657;49.630;11.018;2023-04-19T00:17:24;9.10;99.90
7232;DHT22;3657;49.630;11.018;2023-04-19T00:19:51;9.10;99.90
7232;DHT22;3657;49.630;11.018;2023-04-19T00:22:18;9.10;99.90
7232;DHT22;3657;49.630;11.018;2023-04-19T00:24:44;9.00;99.90
7232;DHT22;3657;49.630;11.018;2023-04-19T00:27:11;9.00;99.90
7232;DHT22;3657;49.630;11.018;2023-04-19T00:29:38;9.00;99.90
7232;DHT22;3657;49.630;11.018;2023-04-19T00:32:04;9.00;99.90
7232;DHT22;3657;49.630;11.018;2023-04-19T00:34:32;9.00;99.90
7232;DHT22;3657;49.630;11.018;2023-04-19T00:36:59;8.90;99.90
7232;DHT22;3657;49.630;11.018;2023-04-19T00:39:26;8.90;99.90
7232;DHT22;3657;49.630;11.018;2023-04-19T00:41:52;8.90;99.90
7232;DHT22;3657;49.630;11.018;2023-04-19T00:44:21;8.90;99.90
7232;DHT22;3657;49.630;11.018;2023-04-19T00:46:48;8.90;99.90
7232;DHT22;3657;49.630;11.018;2023-04-19T00:49:15;8.90;99.90
7232;DHT22;3657;49.630;11.018;2023-04-19T00:51:43;8.90;99.90
7232;DHT22;3657;49.630;11.018;2023-04-19T00:54:11;8.90;99.90
7232;DHT22;3657;49.630;11.018;2023-04-19T00:56:39;8.80;99.90
7232;DHT22;3657;49.630;11.018;2023-04-19T00:59:06;8.80;99.90
7232;DHT22;3657;49.630;11.018;2023-04-19T01:01:33;8.90;99.90
7232;DHT22;3657;49.630;11.018;2023-04-19T01:04:00;8.80;99.90
7232;DHT22;3657;49.630;11.018;2023-04-19T01:06:27;8.80;99.90
7232;DHT22;3657;49.630;11.018;2023-04-19T01:08:56;8.80;99.90
7232;DHT22;3657;49.630;11.018;2023-04-19T01:11:23;8.70;99.90
7232;DHT22;3657;49.630;11.018;2023-04-19T01:13:50;8.70;99.90
7232;DHT22;3657;49.630;11.018;2023-04-19T01:16:17;8.70;99.90
7232;DHT22;3657;49.630;11.018;2023-04-19T01:18:44;8.70;99.90
7232;DHT22;3657;49.630;11.018;2023-04-19T01:21:11;8.60;99.90
7232;DHT22;3657;49.630;11.018;2023-04-19T01:23:39;8.60;99.90
7232;DHT22;3657;49.630;11.018;2023-04-19T01:26:06;8.60;99.90
7232;DHT22;3657;49.630;11.018;2023-04-19T01:28:33;8.60;99.90
7232;DHT22;3657;49.630;11.018;2023-04-19T01:30:59;8.50;99.90
7232;DHT22;3657;49.630;11.018;2023-04-19T01:33:26;8.50;99.90
7232;DHT22;3657;49.630;11.018;2023-04-19T01:35:53;8.50;99.90
7232;DHT22;3657;49.630;11.018;2023-04-19T01:38:19;8.40;99.90
7232;DHT22;3657;49.630;11.018;2023-04-19T01:40:47;8.40;99.90
7232;DHT22;3657;49.630;11.018;2023-04-19T01:43:16;8.40;99.90
7232;DHT22;3657;49.630;11.018;2023-04-19T01:45:43;8.40;99.90
7232;DHT22;3657;49.630;11.018;2023-04-19T01:48:09;8.40;99.90
7232;DHT22;3657;49.630;11.018;2023-04-19T01:50:36;8.40;99.90
7232;DHT22;3657;49.630;11.018;2023-04-19T01:53:03;8.40;99.90
7232;DHT22;3657;49.630;11.018;2023-04-19T01:55:29;8.40;99.90
7232;DHT22;3657;49.630;11.018;2023-04-19T01:57:57;8.30;99.90
7232;DHT22;3657;49.630;11.018;2023-04-19T02:00:24;8.30;99.90
7232;DHT22;3657;49.630;11.018;2023-04-19T02:02:51;8.30;99.90
7232;DHT22;3657;49.630;11.018;2023-04-19T02:05:17;8.30;99.90
7232;DHT22;3657;49.630;11.018;2023-04-19T02:07:44;8.30;99.90
7232;DHT22;3657;49.630;11.018;2023-04-19T02:10:11;8.30;99.90
7232;DHT22;3657;49.630;11.018;2023-04-19T02:12:38;8.30;99.90
7232;DHT22;3657;49.630;11.018;2023-04-19T02:15:07;8.30;99.90
7232;DHT22;3657;49.630;11.018;2023-04-19T02:17:33;8.30;99.90
7232;DHT22;3657;49.630;11.018;2023-04-19T02:20:00;8.30;99.90
7232;DHT22;3657;49.630;11.018;2023-04-19T02:22:28;8.30;99.90
7232;DHT22;3657;49.630;11.018;2023-04-19T02:24:55;8.30;99.90
7232;DHT22;3657;49.630;11.018;2023-04-19T02:27:22;8.30;99.90
7232;DHT22;3657;49.630;11.018;2023-04-19T02:29:48;8.30;99.90
7232;DHT22;3657;49.630;11.018;2023-04-19T02:32:17;8.20;99.90
7232;DHT22;3657;49.630;11.018;2023-04-19T02:34:43;8.20;99.90
7232;DHT22;3657;49.630;11.018;2023-04-19T02:37:10;8.20;99.90
7232;DHT22;3657;49.630;11.018;2023-04-19T02:39:37;8.20;99.90
7232;DHT22;3657;49.630;11.018;2023-04-19T02:42:04;8.20;99.90
7232;DHT22;3657;49.630;11.018;2023-04-19T02:44:31;8.20;99.90
7232;DHT22;3657;49.630;11.018;2023-04-19T02:46:57;8.10;99.90
7232;DHT22;3657;49.630;11.018;2023-04-19T02:49:25;8.10;99.90
7232;DHT22;3657;49.630;11.018;2023-04-19T02:51:52;8.10;99.90
7232;DHT22;3657;49.630;11.018;2023-04-19T02:54:19;8.10;99.90
7232;DHT22;3657;49.630;11.018;2023-04-19T02:56:45;8.10;99.90
7232;DHT22;3657;49.630;11.018;2023-04-19T02:59:12;8.10;99.90
7232;DHT22;3657;49.630;11.018;2023-04-19T03:01:38;8.10;99.90
7232;DHT22;3657;49.630;11.018;2023-04-19T03:04:05;8.00;99.90
7232;DHT22;3657;49.630;11.018;2023-04-19T03:06:33;8.00;99.90
7232;DHT22;3657;49.630;11.018;2023-04-19T03:09:00;8.00;99.90
7232;DHT22;3657;49.630;11.018;2023-04-19T03:11:27;8.00;99.90
7232;DHT22;3657;49.630;11.018;2023-04-19T03:13:54;8.00;99.90
7232;DHT22;3657;49.630;11.018;2023-04-19T03:16:20;8.00;99.90
7232;DHT22;3657;49.630;11.018;2023-04-19T03:18:47;8.00;99.90
7232;DHT22;3657;49.630;11.018;2023-04-19T03:21:14;8.00;99.90
7232;DHT22;3657;49.630;11.018;2023-04-19T03:23:42;7.90;99.90
7232;DHT22;3657;49.630;11.018;2023-04-19T03:26:08;7.90;99.90
7232;DHT22;3657;49.630;11.018;2023-04-19T03:28:35;7.90;99.90
7232;DHT22;3657;49.630;11.018;2023-04-19T03:31:01;7.90;99.90
7232;DHT22;3657;49.630;11.018;2023-04-19T03:33:28;7.90;99.90
7232;DHT22;3657;49.630;11.018;2023-04-19T03:35:55;7.90;99.90
7232;DHT22;3657;49.630;11.018;2023-04-19T03:38:22;7.90;99.90
7232;DHT22;3657;49.630;11.018;2023-04-19T03:40:50;7.80;99.90
7232;DHT22;3657;49.630;11.018;2023-04-19T03:43:16;7.80;99.90
7232;DHT22;3657;49.630;11.018;2023-04-19T03:45:43;7.70;99.90
7232;DHT22;3657;49.630;11.018;2023-04-19T03:48:10;7.70;99.90
7232;DHT22;3657;49.630;11.018;2023-04-19T03:50:36;7.70;99.90
7232;DHT22;3657;49.630;11.018;2023-04-19T03:53:03;7.70;99.90
7232;DHT22;3657;49.630;11.018;2023-04-19T03:55:30;7.70;99.90
7232;DHT22;3657;49.630;11.018;2023-04-19T03:57:58;7.70;99.90
7232;DHT22;3657;49.630;11.018;2023-04-19T04:00:25;7.70;99.90
7232;DHT22;3657;49.630;11.018;2023-04-19T04:02:52;7.70;99.90
7232;DHT22;3657;49.630;11.018;2023-04-19T04:05:18;7.70;99.90
7232;DHT22;3657;49.630;11.018;2023-04-19T04:07:45;7.70;99.90
7232;DHT22;3657;49.630;11.018;2023-04-19T04:10:12;7.70;99.90
7232;DHT22;3657;49.630;11.018;2023-04-19T04:12:38;7.70;99.90
7232;DHT22;3657;49.630;11.018;2023-04-19T04:15:08;7.60;99.90
7232;DHT22;3657;49.630;11.018;2023-04-19T04:17:35;7.60;99.90
7232;DHT22;3657;49.630;11.018;2023-04-19T04:20:02;7.60;99.90
7232;DHT22;3657;49.630;11.018;2023-04-19T04:22:29;7.60;99.90
7232;DHT22;3657;49.630;11.018;2023-04-19T04:24:57;7.50;99.90
7232;DHT22;3657;49.630;11.018;2023-04-19T04:27:25;7.50;99.90
7232;DHT22;3657;49.630;11.018;2023-04-19T04:29:52;7.50;99.90
7232;DHT22;3657;49.630;11.018;2023-04-19T04:32:20;7.50;99.90
7232;DHT22;3657;49.630;11.018;2023-04-19T04:34:47;7.50;99.90
7232;DHT22;3657;49.630;11.018;2023-04-19T04:37:14;7.50;99.90
7232;DHT22;3657;49.630;11.018;2023-04-19T04:39:42;7.50;99.90
7232;DHT22;3657;49.630;11.018;2023-04-19T04:42:09;7.50;99.90
7232;DHT22;3657;49.630;11.018;2023-04-19T04:44:36;7.50;99.90
7232;DHT22;3657;49.630;11.018;2023-04-19T04:47:04;7.40;99.90
7232;DHT22;3657;49.630;11.018;2023-04-19T04:49:32;7.40;99.90
7232;DHT22;3657;49.630;11.018;2023-04-19T04:51:58;7.30;99.90
7232;DHT22;3657;49.630;11.018;2023-04-19T04:54:25;7.30;99.90
7232;DHT22;3657;49.630;11.018;2023-04-19T04:56:52;7.30;99.90
7232;DHT22;3657;49.630;11.018;2023-04-19T04:59:18;7.30;99.90
7232;DHT22;3657;49.630;11.018;2023-04-19T05:01:45;7.30;99.90
7232;DHT22;3657;49.630;11.018;2023-04-19T05:04:12;7.30;99.90
7232;DHT22;3657;49.630;11.018;2023-04-19T05:06:39;7.40;99.90
7232;DHT22;3657;49.630;11.018;2023-04-19T05:09:06;7.40;99.90
7232;DHT22;3657;49.630;11.018;2023-04-19T05:11:33;7.50;99.90
7232;DHT22;3657;49.630;11.018;2023-04-19T05:14:00;7.50;99.90
7232;DHT22;3657;49.630;11.018;2023-04-19T05:16:26;7.50;99.90
7232;DHT22;3657;49.630;11.018;2023-04-19T05:18:53;7.50;99.90
7232;DHT22;3657;49.630;11.018;2023-04-19T05:21:20;7.50;99.90
7232;DHT22;3657;49.630;11.018;2023-04-19T05:23:49;7.60;99.90
7232;DHT22;3657;49.630;11.018;2023-04-19T05:26:17;7.60;99.90
7232;DHT22;3657;49.630;11.018;2023-04-19T05:28:44;7.60;99.90
7232;DHT22;3657;49.630;11.018;2023-04-19T05:31:11;7.60;99.90
7232;DHT22;3657;49.630;11.018;2023-04-19T05:33:38;7.70;99.90
7232;DHT22;3657;49.630;11.018;2023-04-19T05:36:05;7.70;99.90
7232;DHT22;3657;49.630;11.018;2023-04-19T05:38:32;7.70;99.90
7232;DHT22;3657;49.630;11.018;2023-04-19T05:41:00;7.70;99.90
7232;DHT22;3657;49.630;11.018;2023-04-19T05:43:27;7.70;99.90
7232;DHT22;3657;49.630;11.018;2023-04-19T05:45:53;7.70;99.90
7232;DHT22;3657;49.630;11.018;2023-04-19T05:48:20;7.70;99.90
7232;DHT22;3657;49.630;11.018;2023-04-19T05:50:47;7.70;99.90
7232;DHT22;3657;49.630;11.018;2023-04-19T05:53:13;7.60;99.90
7232;DHT22;3657;49.630;11.018;2023-04-19T05:55:40;7.60;99.90
7232;DHT22;3657;49.630;11.018;2023-04-19T05:58:08;7.60;99.90
7232;DHT22;3657;49.630;11.018;2023-04-19T06:00:35;7.60;99.90
7232;DHT22;3657;49.630;11.018;2023-04-19T06:03:02;7.60;99.90
7232;DHT22;3657;49.630;11.018;2023-04-19T06:05:29;7.60;99.90
7232;DHT22;3657;49.630;11.018;2023-04-19T06:07:55;7.70;99.90
7232;DHT22;3657;49.630;11.018;2023-04-19T06:10:22;7.70;99.90
7232;DHT22;3657;49.630;11.018;2023-04-19T06:12:49;7.70;99.90
7232;DHT22;3657;49.630;11.018;2023-04-19T06:15:17;7.80;99.90
7232;DHT22;3657;49.630;11.018;2023-04-19T06:17:44;7.80;99.90
7232;DHT22;3657;49.630;11.018;2023-04-19T06:20:10;7.70;99.90
7232;DHT22;3657;49.630;11.018;2023-04-19T06:22:41;7.80;99.90
7232;DHT22;3657;49.630;11.018;2023-04-19T06:25:08;7.80;99.90
7232;DHT22;3657;49.630;11.018;2023-04-19T06:27:35;7.80;99.90
7232;DHT22;3657;49.630;11.018;2023-04-19T06:30:01;7.70;99.90
7232;DHT22;3657;49.630;11.018;2023-04-19T06:32:29;7.70;99.90
7232;DHT22;3657;49.630;11.018;2023-04-19T06:34:56;7.80;99.90
7232;DHT22;3657;49.630;11.018;2023-04-19T06:37:22;7.80;99.90
7232;DHT22;3657;49.630;11.018;2023-04-19T06:39:49;7.80;99.90
7232;DHT22;3657;49.630;11.018;2023-04-19T06:42:16;8.00;99.90
7232;DHT22;3657;49.630;11.018;2023-04-19T06:44:44;8.10;99.90
7232;DHT22;3657;49.630;11.018;2023-04-19T06:47:11;8.10;99.90
7232;DHT22;3657;49.630;11.018;2023-04-19T06:49:39;8.10;99.90
7232;DHT22;3657;49.630;11.018;2023-04-19T06:52:05;8.10;99.90
7232;DHT22;3657;49.630;11.018;2023-04-19T06:54:32;8.10;99.90
7232;DHT22;3657;49.630;11.018;2023-04-19T06:56:58;8.10;99.90
7232;DHT22;3657;49.630;11.018;2023-04-19T06:59:26;8.20;99.90
7232;DHT22;3657;49.630;11.018;2023-04-19T07:01:56;8.20;99.90
7232;DHT22;3657;49.630;11.018;2023-04-19T07:04:22;8.20;99.90
7232;DHT22;3657;49.630;11.018;2023-04-19T07:06:50;8.30;99.90
7232;DHT22;3657;49.630;11.018;2023-04-19T07:09:17;8.30;99.90
7232;DHT22;3657;49.630;11.018;2023-04-19T07:11:44;8.30;99.90
7232;DHT22;3657;49.630;11.018;2023-04-19T07:14:12;8.30;99.90
7232;DHT22;3657;49.630;11.018;2023-04-19T07:16:38;8.30;99.90
7232;DHT22;3657;49.630;11.018;2023-04-19T07:19:05;8.20;99.90
7232;DHT22;3657;49.630;11.018;2023-04-19T07:21:31;8.30;99.90
7232;DHT22;3657;49.630;11.018;2023-04-19T07:24:00;8.30;99.90
7232;DHT22;3657;49.630;11.018;2023-04-19T07:26:27;8.30;99.90
7232;DHT22;3657;49.630;11.018;2023-04-19T07:28:54;8.30;99.90
7232;DHT22;3657;49.630;11.018;2023-04-19T07:31:21;8.30;99.90
7232;DHT22;3657;49.630;11.018;2023-04-19T07:33:49;8.30;99.90
7232;DHT22;3657;49.630;11.018;2023-04-19T07:36:16;8.20;99.90
7232;DHT22;3657;49.630;11.018;2023-04-19T07:38:42;8.20;99.90
7232;DHT22;3657;49.630;11.018;2023-04-19T07:41:11;8.20;99.90
7232;DHT22;3657;49.630;11.018;2023-04-19T07:43:37;8.20;99.90
7232;DHT22;3657;49.630;11.018;2023-04-19T07:46:08;8.20;99.90
7232;DHT22;3657;49.630;11.018;2023-04-19T07:48:35;8.20;99.90
7232;DHT22;3657;49.630;11.018;2023-04-19T07:51:07;8.20;99.90
7232;DHT22;3657;49.630;11.018;2023-04-19T07:53:34;8.20;99.90
7232;DHT22;3657;49.630;11.018;2023-04-19T07:56:01;8.10;99.90
7232;DHT22;3657;49.630;11.018;2023-04-19T07:58:29;8.20;99.90
7232;DHT22;3657;49.630;11.018;2023-04-19T08:00:55;8.20;99.90
7232;DHT22;3657;49.630;11.018;2023-04-19T08:03:22;8.20;99.90
7232;DHT22;3657;49.630;11.018;2023-04-19T08:05:49;8.30;99.90
7232;DHT22;3657;49.630;11.018;2023-04-19T08:08:16;8.30;99.90
7232;DHT22;3657;49.630;11.018;2023-04-19T08:10:42;8.30;99.90
7232;DHT22;3657;49.630;11.018;2023-04-19T08:13:09;8.30;99.90
7232;DHT22;3657;49.630;11.018;2023-04-19T08:15:37;8.30;99.90
7232;DHT22;3657;49.630;11.018;2023-04-19T08:18:04;8.40;99.90
7232;DHT22;3657;49.630;11.018;2023-04-19T08:20:30;8.40;99.90
7232;DHT22;3657;49.630;11.018;2023-04-19T08:22:57;8.40;99.90
7232;DHT22;3657;49.630;11.018;2023-04-19T08:25:24;8.30;99.90
7232;DHT22;3657;49.630;11.018;2023-04-19T08:28:20;8.30;99.90
7232;DHT22;3657;49.630;11.018;2023-04-19T08:30:47;8.30;99.90
7232;DHT22;3657;49.630;11.018;2023-04-19T08:33:14;8.30;99.90
7232;DHT22;3657;49.630;11.018;2023-04-19T08:35:41;8.30;99.90
7232;DHT22;3657;49.630;11.018;2023-04-19T08:38:09;8.30;99.90
7232;DHT22;3657;49.630;11.018;2023-04-19T08:40:38;8.30;99.90
7232;DHT22;3657;49.630;11.018;2023-04-19T08:43:06;8.30;99.90
7232;DHT22;3657;49.630;11.018;2023-04-19T08:45:33;8.30;99.90
7232;DHT22;3657;49.630;11.018;2023-04-19T08:48:03;8.30;99.90
7232;DHT22;3657;49.630;11.018;2023-04-19T08:50:30;8.30;99.90
7232;DHT22;3657;49.630;11.018;2023-04-19T08:52:58;8.40;99.90
7232;DHT22;3657;49.630;11.018;2023-04-19T08:55:26;8.40;99.90
7232;DHT22;3657;49.630;11.018;2023-04-19T08:57:54;8.40;99.90
7232;DHT22;3657;49.630;11.018;2023-04-19T09:00:21;8.40;99.90
7232;DHT22;3657;49.630;11.018;2023-04-19T09:02:49;8.40;99.90
7232;DHT22;3657;49.630;11.018;2023-04-19T09:05:18;8.40;99.90
7232;DHT22;3657;49.630;11.018;2023-04-19T09:07:45;8.40;99.90
7232;DHT22;3657;49.630;11.018;2023-04-19T09:10:13;8.40;99.90
7232;DHT22;3657;49.630;11.018;2023-04-19T09:12:40;8.40;99.90
7232;DHT22;3657;49.630;11.018;2023-04-19T09:15:08;8.40;99.90
7232;DHT22;3657;49.630;11.018;2023-04-19T09:17:35;8.40;99.90
7232;DHT22;3657;49.630;11.018;2023-04-19T09:20:03;8.50;99.90
7232;DHT22;3657;49.630;11.018;2023-04-19T09:22:31;8.40;99.90
7232;DHT22;3657;49.630;11.018;2023-04-19T09:24:59;8.40;99.90
7232;DHT22;3657;49.630;11.018;2023-04-19T09:27:28;8.50;99.90
7232;DHT22;3657;49.630;11.018;2023-04-19T09:29:56;8.50;99.90
7232;DHT22;3657;49.630;11.018;2023-04-19T09:32:23;8.50;99.90
7232;DHT22;3657;49.630;11.018;2023-04-19T09:34:51;8.50;99.90
7232;DHT22;3657;49.630;11.018;2023-04-19T09:37:18;8.50;99.90
7232;DHT22;3657;49.630;11.018;2023-04-19T09:39:46;8.50;99.90
7232;DHT22;3657;49.630;11.018;2023-04-19T09:42:13;8.60;99.90
7232;DHT22;3657;49.630;11.018;2023-04-19T09:44:39;8.70;99.90
7232;DHT22;3657;49.630;11.018;2023-04-19T09:47:21;8.80;99.90
7232;DHT22;3657;49.630;11.018;2023-04-19T09:50:03;9.20;99.90
7232;DHT22;3657;49.630;11.018;2023-04-19T09:52:31;9.50;99.90
7232;DHT22;3657;49.630;11.018;2023-04-19T09:55:00;9.80;99.90
7232;DHT22;3657;49.630;11.018;2023-04-19T09:57:28;10.10;99.90
7232;DHT22;3657;49.630;11.018;2023-04-19T09:59:55;10.10;99.90
7232;DHT22;3657;49.630;11.018;2023-04-19T10:02:22;10.10;99.90
7232;DHT22;3657;49.630;11.018;2023-04-19T10:04:50;10.20;99.90
7232;DHT22;3657;49.630;11.018;2023-04-19T10:07:17;10.40;99.90
7232;DHT22;3657;49.630;11.018;2023-04-19T10:09:44;10.40;99.90
7232;DHT22;3657;49.630;11.018;2023-04-19T10:12:14;10.50;99.90
7232;DHT22;3657;49.630;11.018;2023-04-19T10:14:41;10.50;99.90
7232;DHT22;3657;49.630;11.018;2023-04-19T10:17:08;10.50;99.90
7232;DHT22;3657;49.630;11.018;2023-04-19T10:19:36;10.80;99.90
7232;DHT22;3657;49.630;11.018;2023-04-19T10:22:03;11.10;99.90
7232;DHT22;3657;49.630;11.018;2023-04-19T10:24:32;11.40;99.90
7232;DHT22;3657;49.630;11.018;2023-04-19T10:27:07;11.70;99.90
7232;DHT22;3657;49.630;11.018;2023-04-19T10:29:55;11.90;99.90
7232;DHT22;3657;49.630;11.018;2023-04-19T10:32:23;12.10;99.90
7232;DHT22;3657;49.630;11.018;2023-04-19T10:34:51;12.20;99.90
7232;DHT22;3657;49.630;11.018;2023-04-19T10:37:21;12.20;99.90
7232;DHT22;3657;49.630;11.018;2023-04-19T10:39:49;12.20;99.90
7232;DHT22;3657;49.630;11.018;2023-04-19T10:42:16;12.30;99.90
7232;DHT22;3657;49.630;11.018;2023-04-19T10:47:44;12.60;99.90
7232;DHT22;3657;49.630;11.018;2023-04-19T10:50:11;12.70;99.90
7232;DHT22;3657;49.630;11.018;2023-04-19T10:52:41;12.80;99.90
7232;DHT22;3657;49.630;11.018;2023-04-19T10:55:08;12.90;99.90
7232;DHT22;3657;49.630;11.018;2023-04-19T10:58:01;13.10;99.90
7232;DHT22;3657;49.630;11.018;2023-04-19T11:00:28;13.30;99.90
7232;DHT22;3657;49.630;11.018;2023-04-19T11:02:58;13.30;99.90
7232;DHT22;3657;49.630;11.018;2023-04-19T11:05:25;13.40;99.90
7232;DHT22;3657;49.630;11.018;2023-04-19T11:07:52;13.30;99.90
7232;DHT22;3657;49.630;11.018;2023-04-19T11:10:28;13.40;99.90
7232;DHT22;3657;49.630;11.018;2023-04-19T11:12:55;13.40;99.90
7232;DHT22;3657;49.630;11.018;2023-04-19T11:15:22;13.40;99.90
7232;DHT22;3657;49.630;11.018;2023-04-19T11:17:49;13.40;99.90
7232;DHT22;3657;49.630;11.018;2023-04-19T11:20:22;13.30;99.90
7232;DHT22;3657;49.630;11.018;2023-04-19T11:22:49;13.20;99.90
7232;DHT22;3657;49.630;11.018;2023-04-19T11:25:16;13.20;99.90
7232;DHT22;3657;49.630;11.018;2023-04-19T11:27:45;13.20;99.90
7232;DHT22;3657;49.630;11.018;2023-04-19T11:30:13;13.30;99.90
7232;DHT22;3657;49.630;11.018;2023-04-19T11:32:45;13.30;99.90
7232;DHT22;3657;49.630;11.018;2023-04-19T11:35:13;13.40;99.90
7232;DHT22;3657;49.630;11.018;2023-04-19T11:37:41;13.50;99.90
7232;DHT22;3657;49.630;11.018;2023-04-19T11:40:08;13.50;99.90
7232;DHT22;3657;49.630;11.018;2023-04-19T11:42:39;13.40;99.90
7232;DHT22;3657;49.630;11.018;2023-04-19T11:45:08;13.40;99.90
7232;DHT22;3657;49.630;11.018;2023-04-19T11:47:35;13.40;99.10
7232;DHT22;3657;49.630;11.018;2023-04-19T11:50:32;13.40;99.90
7232;DHT22;3657;49.630;11.018;2023-04-19T11:53:09;13.30;99.90
7232;DHT22;3657;49.630;11.018;2023-04-19T11:55:36;13.30;99.50
7232;DHT22;3657;49.630;11.018;2023-04-19T11:58:05;13.20;99.90
7232;DHT22;3657;49.630;11.018;2023-04-19T12:00:34;13.20;99.90
7232;DHT22;3657;49.630;11.018;2023-04-19T12:03:01;13.20;99.90
7232;DHT22;3657;49.630;11.018;2023-04-19T12:05:28;13.10;99.30
7232;DHT22;3657;49.630;11.018;2023-04-19T12:08:01;13.10;99.90
7232;DHT22;3657;49.630;11.018;2023-04-19T12:10:28;13.10;99.90
7232;DHT22;3657;49.630;11.018;2023-04-19T12:12:55;13.10;99.00
7232;DHT22;3657;49.630;11.018;2023-04-19T12:15:22;13.20;99.90
7232;DHT22;3657;49.630;11.018;2023-04-19T12:17:55;13.20;99.90
7232;DHT22;3657;49.630;11.018;2023-04-19T12:20:32;13.20;99.10
7232;DHT22;3657;49.630;11.018;2023-04-19T12:23:00;13.30;99.20
7232;DHT22;3657;49.630;11.018;2023-04-19T12:25:28;13.30;99.90
7232;DHT22;3657;49.630;11.018;2023-04-19T12:27:55;13.20;99.90
7232;DHT22;3657;49.630;11.018;2023-04-19T12:30:22;13.20;99.90
7232;DHT22;3657;49.630;11.018;2023-04-19T12:32:49;13.20;99.10
7232;DHT22;3657;49.630;11.018;2023-04-19T12:35:19;13.20;99.60
7232;DHT22;3657;49.630;11.018;2023-04-19T12:37:46;13.30;96.60
7232;DHT22;3657;49.630;11.018;2023-04-19T12:40:14;13.30;98.00
7232;DHT22;3657;49.630;11.018;2023-04-19T12:42:41;13.20;96.50
7232;DHT22;3657;49.630;11.018;2023-04-19T12:45:08;13.10;98.50
7232;DHT22;3657;49.630;11.018;2023-04-19T12:47:35;13.20;97.40
7232;DHT22;3657;49.630;11.018;2023-04-19T12:50:02;13.20;97.70
7232;DHT22;3657;49.630;11.018;2023-04-19T12:52:29;13.20;98.10
7232;DHT22;3657;49.630;11.018;2023-04-19T12:54:56;13.10;95.80
7232;DHT22;3657;49.630;11.018;2023-04-19T12:57:24;13.10;97.00
7232;DHT22;3657;49.630;11.018;2023-04-19T12:59:50;13.30;97.10
7232;DHT22;3657;49.630;11.018;2023-04-19T13:02:17;13.40;99.30
7232;DHT22;3657;49.630;11.018;2023-04-19T13:04:44;13.40;95.20
7232;DHT22;3657;49.630;11.018;2023-04-19T13:07:10;13.30;96.70
7232;DHT22;3657;49.630;11.018;2023-04-19T13:09:37;13.30;96.60
7232;DHT22;3657;49.630;11.018;2023-04-19T13:12:04;13.30;97.90
7232;DHT22;3657;49.630;11.018;2023-04-19T13:14:32;13.30;95.40
7232;DHT22;3657;49.630;11.018;2023-04-19T13:16:59;13.30;95.90
7232;DHT22;3657;49.630;11.018;2023-04-19T13:19:26;13.30;92.80
7232;DHT22;3657;49.630;11.018;2023-04-19T13:21:52;13.30;96.50
7232;DHT22;3657;49.630;11.018;2023-04-19T13:24:19;13.20;96.10
7232;DHT22;3657;49.630;11.018;2023-04-19T13:26:46;13.30;95.90
7232;DHT22;3657;49.630;11.018;2023-04-19T13:29:12;13.20;95.40
7232;DHT22;3657;49.630;11.018;2023-04-19T13:31:40;13.30;97.30
7232;DHT22;3657;49.630;11.018;2023-04-19T13:34:08;13.20;94.60
7232;DHT22;3657;49.630;11.018;2023-04-19T13:36:34;13.10;94.00
7232;DHT22;3657;49.630;11.018;2023-04-19T13:39:02;13.10;96.20
7232;DHT22;3657;49.630;11.018;2023-04-19T13:41:28;13.10;95.80
7232;DHT22;3657;49.630;11.018;2023-04-19T13:43:55;13.30;96.20
7232;DHT22;3657;49.630;11.018;2023-04-19T13:46:22;13.30;96.60
7232;DHT22;3657;49.630;11.018;2023-04-19T13:48:50;13.10;96.00
7232;DHT22;3657;49.630;11.018;2023-04-19T13:51:16;13.00;93.90
7232;DHT22;3657;49.630;11.018;2023-04-19T13:53:43;12.90;93.10
7232;DHT22;3657;49.630;11.018;2023-04-19T13:56:10;13.00;95.80
7232;DHT22;3657;49.630;11.018;2023-04-19T13:58:36;12.90;94.00
7232;DHT22;3657;49.630;11.018;2023-04-19T14:01:03;12.90;95.80
7232;DHT22;3657;49.630;11.018;2023-04-19T14:03:30;12.90;96.00
7232;DHT22;3657;49.630;11.018;2023-04-19T14:05:58;12.70;95.40
7232;DHT22;3657;49.630;11.018;2023-04-19T14:08:25;12.70;94.70
7232;DHT22;3657;49.630;11.018;2023-04-19T14:10:51;12.80;95.30
7232;DHT22;3657;49.630;11.018;2023-04-19T14:13:18;12.80;95.50
7232;DHT22;3657;49.630;11.018;2023-04-19T14:15:45;12.80;95.30
7232;DHT22;3657;49.630;11.018;2023-04-19T14:18:11;12.90;95.70
7232;DHT22;3657;49.630;11.018;2023-04-19T14:20:38;13.00;95.10
7232;DHT22;3657;49.630;11.018;2023-04-19T14:23:06;13.00;94.30
7232;DHT22;3657;49.630;11.018;2023-04-19T14:25:33;12.90;94.80
7232;DHT22;3657;49.630;11.018;2023-04-19T14:28:01;12.70;93.90
7232;DHT22;3657;49.630;11.018;2023-04-19T14:30:27;12.70;94.50
7232;DHT22;3657;49.630;11.018;2023-04-19T14:32:54;12.70;94.70
7232;DHT22;3657;49.630;11.018;2023-04-19T14:35:21;12.50;94.70
7232;DHT22;3657;49.630;11.018;2023-04-19T14:37:47;12.50;93.50
7232;DHT22;3657;49.630;11.018;2023-04-19T14:40:15;12.50;93.70
7232;DHT22;3657;49.630;11.018;2023-04-19T14:42:44;12.50;94.10
7232;DHT22;3657;49.630;11.018;2023-04-19T14:45:10;12.50;94.20
7232;DHT22;3657;49.630;11.018;2023-04-19T14:47:37;12.50;93.70
7232;DHT22;3657;49.630;11.018;2023-04-19T14:50:05;12.60;95.20
7232;DHT22;3657;49.630;11.018;2023-04-19T14:52:31;12.40;94.80
7232;DHT22;3657;49.630;11.018;2023-04-19T14:54:59;12.50;92.30
7232;DHT22;3657;49.630;11.018;2023-04-19T14:57:27;12.40;93.20
7232;DHT22;3657;49.630;11.018;2023-04-19T14:59:54;12.30;92.60
7232;DHT22;3657;49.630;11.018;2023-04-19T15:02:22;12.20;93.60
7232;DHT22;3657;49.630;11.018;2023-04-19T15:04:49;12.10;93.70
7232;DHT22;3657;49.630;11.018;2023-04-19T15:07:15;12.10;93.00
7232;DHT22;3657;49.630;11.018;2023-04-19T15:09:42;12.20;95.40
7232;DHT22;3657;49.630;11.018;2023-04-19T15:12:09;12.20;92.20
7232;DHT22;3657;49.630;11.018;2023-04-19T15:14:37;12.20;94.60
7232;DHT22;3657;49.630;11.018;2023-04-19T15:17:04;12.10;94.40
7232;DHT22;3657;49.630;11.018;2023-04-19T15:19:31;12.00;93.20
7232;DHT22;3657;49.630;11.018;2023-04-19T15:21:57;12.00;94.60
7232;DHT22;3657;49.630;11.018;2023-04-19T15:24:24;12.00;94.20
7232;DHT22;3657;49.630;11.018;2023-04-19T15:26:51;12.00;94.20
7232;DHT22;3657;49.630;11.018;2023-04-19T15:29:17;12.10;94.20
7232;DHT22;3657;49.630;11.018;2023-04-19T15:31:45;12.10;96.10
7232;DHT22;3657;49.630;11.018;2023-04-19T15:34:12;12.20;94.70
7232;DHT22;3657;49.630;11.018;2023-04-19T15:36:38;12.20;93.40
7232;DHT22;3657;49.630;11.018;2023-04-19T15:39:05;12.30;94.10
7232;DHT22;3657;49.630;11.018;2023-04-19T15:41:32;12.20;95.40
7232;DHT22;3657;49.630;11.018;2023-04-19T15:43:59;12.10;95.20
7232;DHT22;3657;49.630;11.018;2023-04-19T15:46:25;12.00;94.70
7232;DHT22;3657;49.630;11.018;2023-04-19T15:48:53;12.00;95.40
7232;DHT22;3657;49.630;11.018;2023-04-19T15:51:20;12.00;93.50
7232;DHT22;3657;49.630;11.018;2023-04-19T15:53:47;11.90;92.70
7232;DHT22;3657;49.630;11.018;2023-04-19T15:56:13;11.90;95.00
7232;DHT22;3657;49.630;11.018;2023-04-19T15:58:40;11.90;94.60